createdAt,value
2023-04-23T00:00:16.881Z,97949.81
2023-04-23T00:01:20.601Z,97947.91
2023-04-23T00:02:23.182Z,97943.94
2023-04-23T00:03:27.299Z,97950.91
2023-04-23T00:04:36.454Z,97942.50
2023-04-23T00:05:39.446Z,97940.91
2023-04-23T00:06:43.483Z,97944.41
2023-04-23T00:07:46.175Z,97942.03
2023-04-23T00:08:50.971Z,97945.53
2023-04-23T00:09:57.621Z,97949.53
2023-04-23T00:10:59.999Z,97943.94
2023-04-23T00:12:02.612Z,97940.44
2023-04-23T00:13:04.870Z,97948.53
2023-04-23T00:14:07.058Z,97950.44
2023-04-23T00:15:10.079Z,97947.75
2023-04-23T00:16:13.247Z,97949.66
2023-04-23T00:17:15.298Z,97947.44
2023-04-23T00:18:17.254Z,97954.72
2023-04-23T00:19:19.400Z,97951.53
2023-04-23T00:20:21.885Z,97950.72
2023-04-23T00:21:23.733Z,97946.44
2023-04-23T00:22:25.738Z,97951.66
2023-04-23T00:23:28.920Z,97951.44
2023-04-23T00:24:31.964Z,97940.09
2023-04-23T00:25:33.778Z,97948.97
2023-04-23T00:26:35.629Z,97956.50
2023-04-23T00:27:37.580Z,97952.31
2023-04-23T00:28:39.591Z,97957.84
2023-04-23T00:29:41.463Z,97960.03
2023-04-23T00:30:43.298Z,97959.53
2023-04-23T00:31:45.412Z,97962.84
2023-04-23T00:32:47.718Z,97964.75
2023-04-23T00:33:50.222Z,97962.84
2023-04-23T00:34:52.223Z,97963.97
2023-04-23T00:35:54.055Z,97963.97
2023-04-23T00:36:56.009Z,97969.84
2023-04-23T00:37:57.880Z,97971.75
2023-04-23T00:38:59.703Z,97969.84
2023-04-23T00:40:02.276Z,97965.25
2023-04-23T00:41:04.993Z,97970.63
2023-04-23T00:42:12.303Z,97968.44
2023-04-23T00:43:15.360Z,97968.91
2023-04-23T00:44:17.483Z,97976.22
2023-04-23T00:45:20.204Z,97965.41
2023-04-23T00:46:22.420Z,97967.31
2023-04-23T00:47:25.098Z,97972.41
2023-04-23T00:48:28.790Z,97972.63
2023-04-23T00:49:31.574Z,97972.94
2023-04-23T00:50:33.472Z,97974.53
2023-04-23T00:51:35.611Z,97976.13
2023-04-23T00:52:39.152Z,97975.00
2023-04-23T00:53:41.013Z,97973.91
2023-04-23T00:54:43.324Z,97979.31
2023-04-23T00:55:45.439Z,97972.81
2023-04-23T00:56:48.142Z,97974.41
2023-04-23T00:57:50.691Z,97972.19
2023-04-23T00:58:53.371Z,97980.28
2023-04-23T00:59:58.257Z,97979.97
2023-04-23T01:01:02.803Z,97968.38
2023-04-23T01:02:05.521Z,97975.69
2023-04-23T01:03:07.628Z,97977.00
2023-04-23T01:04:09.756Z,97986.19
2023-04-23T01:05:12.440Z,97981.59
2023-04-23T01:06:15.864Z,97980.19
2023-04-23T01:07:18.296Z,97980.97
2023-04-23T01:08:23.325Z,97987.19
2023-04-23T01:09:27.650Z,97988.78
2023-04-23T01:10:32.580Z,97984.47
2023-04-23T01:11:34.580Z,97984.66
2023-04-23T01:12:36.757Z,97984.47
2023-04-23T01:13:38.691Z,97992.25
2023-04-23T01:14:42.277Z,97996.06
2023-04-23T01:15:45.487Z,97989.56
2023-04-23T01:16:47.621Z,97997.34
2023-04-23T01:17:49.611Z,98001.97
2023-04-23T01:18:51.538Z,97997.34
2023-04-23T01:19:53.889Z,98000.38
2023-04-23T01:20:56.189Z,98001.97
2023-04-23T01:22:01.193Z,98001.66
2023-04-23T01:23:04.044Z,98009.44
2023-04-23T01:24:07.467Z,98001.66
2023-04-23T01:25:10.288Z,98009.75
2023-04-23T01:26:12.118Z,98002.13
2023-04-23T01:27:14.096Z,98007.06
2023-04-23T01:28:16.351Z,98006.25
2023-04-23T01:29:18.262Z,98011.34
2023-04-23T01:30:21.954Z,98011.34
2023-04-23T01:31:24.772Z,98001.66
2023-04-23T01:32:27.139Z,98008.66
2023-04-23T01:33:31.644Z,98012.13
2023-04-23T01:34:35.151Z,98006.75
2023-04-23T01:35:37.973Z,98007.53
2023-04-23T01:36:41.698Z,98006.25
2023-04-23T01:37:44.883Z,98004.03
2023-04-23T01:38:46.910Z,97998.94
2023-04-23T01:39:48.995Z,97997.84
2023-04-23T01:40:50.800Z,98010.53
2023-04-23T01:41:53.561Z,98005.16
2023-04-23T01:42:57.363Z,98006.75
2023-04-23T01:44:00.395Z,98001.34
2023-04-23T01:45:03.612Z,97999.75
2023-04-23T01:46:06.049Z,98006.47
2023-04-23T01:47:07.980Z,98001.34
2023-04-23T01:48:10.290Z,98002.75
2023-04-23T01:49:12.660Z,98001.66
2023-04-23T01:50:15.088Z,98003.84
2023-04-23T01:51:17.053Z,98007.34
2023-04-23T01:52:18.926Z,98011.16
2023-04-23T01:53:20.728Z,98009.25
2023-04-23T01:54:22.643Z,98006.56
2023-04-23T01:55:24.666Z,98009.25
2023-04-23T01:56:28.878Z,98008.16
2023-04-23T01:57:30.939Z,98015.47
2023-04-23T01:58:32.784Z,98012.75
2023-04-23T01:59:34.636Z,98013.88
2023-04-23T02:00:36.920Z,98016.56
2023-04-23T02:01:46.971Z,98020.75
2023-04-23T02:02:48.967Z,98010.06
2023-04-23T02:03:51.334Z,98021.16
2023-04-23T02:04:54.208Z,98013.38
2023-04-23T02:05:56.917Z,98021.97
2023-04-23T02:06:58.709Z,98022.75
2023-04-23T02:08:00.730Z,98021.78
2023-04-23T02:09:02.580Z,98019.56
2023-04-23T02:10:05.428Z,98019.56
2023-04-23T02:11:07.244Z,98019.56
2023-04-23T02:12:09.122Z,98024.19
2023-04-23T02:13:10.911Z,98020.69
2023-04-23T02:14:12.986Z,98023.38
2023-04-23T02:15:16.446Z,98019.88
2023-04-23T02:16:19.625Z,98018.28
2023-04-23T02:17:23.057Z,98027.19
2023-04-23T02:18:25.179Z,98021.78
2023-04-23T02:19:27.888Z,98023.69
2023-04-23T02:20:30.005Z,98021.78
2023-04-23T02:21:32.115Z,98024.78
2023-04-23T02:22:33.951Z,98031.00
2023-04-23T02:23:35.877Z,98024.78
2023-04-23T02:24:39.055Z,98026.19
2023-04-23T02:25:42.474Z,98022.09
2023-04-23T02:26:44.317Z,98026.69
2023-04-23T02:27:46.119Z,98022.69
2023-04-23T02:28:48.040Z,98026.19
2023-04-23T02:29:50.272Z,98028.06
2023-04-23T02:30:52.104Z,98022.69
2023-04-23T02:31:53.926Z,98028.88
2023-04-23T02:32:55.837Z,98024.59
2023-04-23T02:33:58.083Z,98024.28
2023-04-23T02:35:02.017Z,98019.19
2023-04-23T02:36:03.959Z,98018.38
2023-04-23T02:37:05.836Z,98021.88
2023-04-23T02:38:07.843Z,98016.78
2023-04-23T02:39:09.709Z,98018.38
2023-04-23T02:40:12.210Z,98022.50
2023-04-23T02:41:14.179Z,98025.19
2023-04-23T02:42:16.010Z,98026.78
2023-04-23T02:43:18.336Z,98025.19
2023-04-23T02:44:20.273Z,98024.41
2023-04-23T02:45:22.085Z,98027.41
2023-04-23T02:46:23.958Z,98032.19
2023-04-23T02:47:25.841Z,98023.91
2023-04-23T02:48:29.676Z,98026.91
2023-04-23T02:49:31.484Z,98030.09
2023-04-23T02:50:33.639Z,98031.22
2023-04-23T02:51:35.600Z,98032.81
2023-04-23T02:52:37.511Z,98032.81
2023-04-23T02:53:39.373Z,98027.41
2023-04-23T02:54:41.345Z,98025.81
2023-04-23T02:55:43.481Z,98026.91
2023-04-23T02:56:45.404Z,98023.69
2023-04-23T02:57:47.402Z,98030.72
2023-04-23T02:58:49.346Z,98025.31
2023-04-23T02:59:51.341Z,98023.69
2023-04-23T03:00:53.407Z,98026.41
2023-04-23T03:01:55.333Z,98024.00
2023-04-23T03:02:57.325Z,98016.72
2023-04-23T03:04:00.791Z,98015.59
2023-04-23T03:05:02.789Z,98019.41
2023-04-23T03:06:06.742Z,98017.81
2023-04-23T03:07:08.730Z,98021.31
2023-04-23T03:08:10.578Z,98024.81
2023-04-23T03:09:12.573Z,98017.00
2023-04-23T03:10:14.500Z,98023.50
2023-04-23T03:11:16.337Z,98029.72
2023-04-23T03:12:18.421Z,98025.41
2023-04-23T03:13:20.263Z,98022.72
2023-04-23T03:14:22.178Z,98023.81
2023-04-23T03:15:24.247Z,98023.03
2023-04-23T03:16:28.779Z,98018.91
2023-04-23T03:17:30.691Z,98015.72
2023-04-23T03:18:32.516Z,98010.31
2023-04-23T03:19:34.382Z,98014.13
2023-04-23T03:20:36.641Z,98011.44
2023-04-23T03:21:38.486Z,98011.75
2023-04-23T03:22:40.523Z,98008.25
2023-04-23T03:23:42.392Z,98007.44
2023-04-23T03:24:44.666Z,98005.81
2023-04-23T03:25:46.723Z,98005.81
2023-04-23T03:26:48.604Z,98011.22
2023-04-23T03:27:50.426Z,98013.91
2023-04-23T03:28:52.268Z,98007.69
2023-04-23T03:29:54.083Z,98010.38
2023-04-23T03:30:56.617Z,98006.09
2023-04-23T03:31:58.591Z,98002.28
2023-04-23T03:33:02.442Z,98001.50
2023-04-23T03:34:04.352Z,98003.41
2023-04-23T03:35:06.601Z,98010.69
2023-04-23T03:36:08.566Z,98006.41
2023-04-23T03:37:10.780Z,98011.00
2023-04-23T03:38:12.711Z,98014.00
2023-04-23T03:39:15.478Z,98020.22
2023-04-23T03:40:17.786Z,98020.22
2023-04-23T03:41:19.624Z,98010.50
2023-04-23T03:42:21.459Z,98009.72
2023-04-23T03:43:23.573Z,98010.50
2023-04-23T03:44:25.466Z,98013.22
2023-04-23T03:45:27.495Z,98021.31
2023-04-23T03:46:29.318Z,98010.03
2023-04-23T03:47:31.478Z,98012.41
2023-04-23T03:48:33.405Z,98016.53
2023-04-23T03:49:35.254Z,98010.34
2023-04-23T03:50:40.682Z,98013.03
2023-04-23T03:51:42.550Z,98011.13
2023-04-23T03:52:44.591Z,98016.53
2023-04-23T03:53:46.525Z,98023.03
2023-04-23T03:54:48.402Z,98016.03
2023-04-23T03:55:50.222Z,98021.44
2023-04-23T03:56:52.145Z,98009.53
2023-04-23T03:57:54.076Z,98016.31
2023-04-23T03:58:55.870Z,98016.31
2023-04-23T03:59:57.636Z,98015.81
2023-04-23T04:00:59.573Z,98015.50
2023-04-23T04:02:04.268Z,98011.22
2023-04-23T04:03:06.418Z,98020.91
2023-04-23T04:04:08.590Z,98021.69
2023-04-23T04:05:11.472Z,98017.41
2023-04-23T04:06:13.594Z,98019.31
2023-04-23T04:07:15.678Z,98020.41
2023-04-23T04:08:17.437Z,98022.00
2023-04-23T04:09:19.305Z,98024.22
2023-04-23T04:10:21.343Z,98022.63
2023-04-23T04:11:23.219Z,98021.81
2023-04-23T04:12:25.112Z,98018.03
2023-04-23T04:13:26.911Z,98021.81
2023-04-23T04:14:28.725Z,98028.31
2023-04-23T04:15:30.638Z,98021.81
2023-04-23T04:16:32.522Z,98018.34
2023-04-23T04:17:34.444Z,98023.22
2023-04-23T04:18:36.658Z,98025.63
2023-04-23T04:19:38.963Z,98023.22
2023-04-23T04:20:43.608Z,98025.63
2023-04-23T04:21:45.582Z,98023.22
2023-04-23T04:22:48.137Z,98024.34
2023-04-23T04:23:51.065Z,98020.03
2023-04-23T04:24:52.933Z,98018.41
2023-04-23T04:25:56.573Z,98017.34
2023-04-23T04:27:02.515Z,98017.34
2023-04-23T04:28:05.044Z,98017.03
2023-04-23T04:29:06.950Z,98019.22
2023-04-23T04:30:09.610Z,98016.25
2023-04-23T04:31:11.474Z,98018.41
2023-04-23T04:32:13.754Z,98033.00
2023-04-23T04:33:16.722Z,98029.22
2023-04-23T04:34:18.634Z,98022.22
2023-04-23T04:35:20.654Z,98032.22
2023-04-23T04:36:25.159Z,98032.22
2023-04-23T04:37:27.994Z,98028.72
2023-04-23T04:38:29.878Z,98037.59
2023-04-23T04:39:31.698Z,98030.63
2023-04-23T04:40:34.584Z,98034.13
2023-04-23T04:41:39.905Z,98038.94
2023-04-23T04:42:42.673Z,98045.69
2023-04-23T04:43:45.118Z,98043.50
2023-04-23T04:44:46.939Z,98040.31
2023-04-23T04:45:48.821Z,98042.69
2023-04-23T04:46:51.407Z,98044.59
2023-04-23T04:47:53.400Z,98044.31
2023-04-23T04:48:55.830Z,98041.63
2023-04-23T04:49:58.058Z,98048.88
2023-04-23T04:50:59.949Z,98041.91
2023-04-23T04:52:02.001Z,98041.63
2023-04-23T04:53:03.901Z,98039.19
2023-04-23T04:54:07.348Z,98034.59
2023-04-23T04:55:09.777Z,98044.31
2023-04-23T04:56:11.566Z,98039.72
2023-04-23T04:57:13.334Z,98050.22
2023-04-23T04:58:15.322Z,98048.63
2023-04-23T04:59:17.166Z,98047.50
2023-04-23T05:00:24.285Z,98042.63
2023-04-23T05:01:27.765Z,98047.22
2023-04-23T05:02:29.737Z,98050.69
2023-04-23T05:03:32.461Z,98046.72
2023-04-23T05:04:34.402Z,98047.50
2023-04-23T05:05:36.287Z,98048.00
2023-04-23T05:06:38.160Z,98051.81
2023-04-23T05:07:40.022Z,98044.81
2023-04-23T05:08:48.062Z,98049.41
2023-04-23T05:09:49.911Z,98051.81
2023-04-23T05:10:53.975Z,98051.00
2023-04-23T05:11:56.800Z,98051.81
2023-04-23T05:12:58.734Z,98052.59
2023-04-23T05:14:00.607Z,98049.09
2023-04-23T05:15:02.657Z,98048.63
2023-04-23T05:16:05.085Z,98056.09
2023-04-23T05:17:07.085Z,98049.09
2023-04-23T05:18:11.299Z,98061.50
2023-04-23T05:19:13.136Z,98055.59
2023-04-23T05:20:15.275Z,98048.63
2023-04-23T05:21:17.213Z,98050.22
2023-04-23T05:22:19.205Z,98047.50
2023-04-23T05:23:21.111Z,98049.41
2023-04-23T05:24:23.051Z,98052.59
2023-04-23T05:25:25.292Z,98050.22
2023-04-23T05:26:27.147Z,98051.00
2023-04-23T05:27:28.914Z,98042.41
2023-04-23T05:28:31.678Z,98038.09
2023-04-23T05:29:33.597Z,98038.63
2023-04-23T05:30:36.002Z,98044.03
2023-04-23T05:31:37.909Z,98040.53
2023-04-23T05:32:40.001Z,98038.94
2023-04-23T05:33:50.010Z,98043.22
2023-04-23T05:34:52.473Z,98049.41
2023-04-23T05:35:55.269Z,98046.19
2023-04-23T05:36:57.070Z,98043.50
2023-04-23T05:37:58.998Z,98046.19
2023-04-23T05:39:00.990Z,98042.22
2023-04-23T05:40:04.480Z,98043.00
2023-04-23T05:41:06.381Z,98046.50
2023-04-23T05:42:08.187Z,98041.09
2023-04-23T05:43:10.055Z,98046.00
2023-04-23T05:44:11.930Z,98041.41
2023-04-23T05:45:13.795Z,98050.00
2023-04-23T05:46:15.737Z,98041.41
2023-04-23T05:47:17.793Z,98046.81
2023-04-23T05:48:19.549Z,98046.00
2023-04-23T05:49:21.465Z,98046.00
2023-04-23T05:50:23.691Z,98048.69
2023-04-23T05:51:25.642Z,98046.31
2023-04-23T05:52:27.746Z,98046.31
2023-04-23T05:53:29.684Z,98045.22
2023-04-23T05:54:31.854Z,98050.91
2023-04-23T05:55:33.742Z,98048.22
2023-04-23T05:56:35.559Z,98049.63
2023-04-23T05:57:38.888Z,98054.72
2023-04-23T05:58:40.838Z,98051.69
2023-04-23T05:59:42.756Z,98053.91
2023-04-23T06:00:45.193Z,98049.31
2023-04-23T06:01:48.271Z,98048.50
2023-04-23T06:02:50.533Z,98053.59
2023-04-23T06:03:53.166Z,98048.50
2023-04-23T06:04:55.646Z,98053.41
2023-04-23T06:05:57.686Z,98044.22
2023-04-23T06:06:59.600Z,98043.41
2023-04-23T06:08:01.442Z,98046.13
2023-04-23T06:09:04.463Z,98048.03
2023-04-23T06:10:07.488Z,98044.22
2023-04-23T06:11:09.265Z,98040.72
2023-04-23T06:12:11.583Z,98050.72
2023-04-23T06:13:13.442Z,98048.03
2023-04-23T06:14:15.370Z,98049.13
2023-04-23T06:15:17.190Z,98049.63
2023-04-23T06:16:19.273Z,98051.00
2023-04-23T06:17:21.232Z,98052.63
2023-04-23T06:18:23.170Z,98049.41
2023-04-23T06:19:27.325Z,98045.91
2023-04-23T06:20:30.392Z,98049.41
2023-04-23T06:21:32.546Z,98042.09
2023-04-23T06:22:34.594Z,98048.28
2023-04-23T06:23:36.793Z,98049.41
2023-04-23T06:24:38.959Z,98048.28
2023-04-23T06:25:41.076Z,98047.00
2023-04-23T06:26:42.869Z,98048.59
2023-04-23T06:27:44.645Z,98049.41
2023-04-23T06:28:46.982Z,98047.50
2023-04-23T06:29:48.790Z,98049.41
2023-04-23T06:30:51.079Z,98051.28
2023-04-23T06:31:56.935Z,98052.09
2023-04-23T06:32:59.143Z,98051.28
2023-04-23T06:34:01.252Z,98053.19
2023-04-23T06:35:04.313Z,98049.69
2023-04-23T06:36:09.552Z,98044.31
2023-04-23T06:37:11.421Z,98046.69
2023-04-23T06:38:13.233Z,98045.09
2023-04-23T06:39:15.113Z,98043.81
2023-04-23T06:40:17.076Z,98038.41
2023-04-23T06:41:19.111Z,98040.31
2023-04-23T06:42:20.894Z,98044.59
2023-04-23T06:43:23.327Z,98034.91
2023-04-23T06:44:25.143Z,98043.50
2023-04-23T06:45:27.049Z,98043.00
2023-04-23T06:46:29.005Z,98041.13
2023-04-23T06:47:31.270Z,98033.81
2023-04-23T06:48:33.663Z,98037.31
2023-04-23T06:49:35.553Z,98039.22
2023-04-23T06:50:37.511Z,98042.72
2023-04-23T06:51:39.327Z,98033.81
2023-04-23T06:52:41.660Z,98033.03
2023-04-23T06:53:43.488Z,98039.22
2023-04-23T06:54:45.395Z,98040.00
2023-04-23T06:55:47.338Z,98036.03
2023-04-23T06:56:49.260Z,98043.50
2023-04-23T06:57:51.091Z,98036.50
2023-04-23T06:58:52.940Z,98038.41
2023-04-23T06:59:54.778Z,98034.91
2023-04-23T07:01:00.999Z,98027.03
2023-04-23T07:02:04.014Z,98030.03
2023-04-23T07:03:06.505Z,98030.03
2023-04-23T07:04:08.481Z,98034.63
2023-04-23T07:05:10.533Z,98026.53
2023-04-23T07:06:13.114Z,98024.13
2023-04-23T07:07:15.022Z,98024.63
2023-04-23T07:08:16.878Z,98025.44
2023-04-23T07:09:18.744Z,98021.13
2023-04-23T07:10:20.872Z,98026.81
2023-04-23T07:11:22.755Z,98024.63
2023-04-23T07:12:24.979Z,98028.44
2023-04-23T07:13:26.914Z,98028.13
2023-04-23T07:14:28.765Z,98026.22
2023-04-23T07:15:30.702Z,98019.22
2023-04-23T07:16:33.917Z,98023.53
2023-04-23T07:17:36.408Z,98020.03
2023-04-23T07:18:38.274Z,98019.22
2023-04-23T07:19:40.111Z,98019.22
2023-04-23T07:20:41.976Z,98020.81
2023-04-23T07:21:43.822Z,98022.41
2023-04-23T07:22:47.433Z,98024.31
2023-04-23T07:23:49.230Z,98020.81
2023-04-23T07:24:51.060Z,98026.22
2023-04-23T07:25:52.944Z,98017.81
2023-04-23T07:26:55.349Z,98017.03
2023-04-23T07:27:57.853Z,98021.63
2023-04-23T07:29:01.153Z,98022.94
2023-04-23T07:30:03.481Z,98011.13
2023-04-23T07:31:05.457Z,98021.31
2023-04-23T07:32:07.431Z,98022.41
2023-04-23T07:33:09.565Z,98018.63
2023-04-23T07:34:11.564Z,98024.53
2023-04-23T07:35:13.618Z,98019.44
2023-04-23T07:36:15.738Z,98028.03
2023-04-23T07:37:17.527Z,98017.56
2023-04-23T07:38:19.346Z,98020.25
2023-04-23T07:39:21.196Z,98019.44
2023-04-23T07:40:23.803Z,98015.66
2023-04-23T07:41:25.766Z,98012.66
2023-04-23T07:42:28.033Z,98009.94
2023-04-23T07:43:30.100Z,98018.84
2023-04-23T07:44:31.941Z,98014.25
2023-04-23T07:45:33.764Z,98009.66
2023-04-23T07:46:35.721Z,98008.84
2023-04-23T07:47:37.697Z,98009.66
2023-04-23T07:48:39.574Z,98012.34
2023-04-23T07:49:41.590Z,98011.53
2023-04-23T07:50:43.862Z,98013.13
2023-04-23T07:51:45.913Z,98015.53
2023-04-23T07:52:47.768Z,98009.66
2023-04-23T07:53:51.213Z,98014.75
2023-04-23T07:54:53.028Z,98009.84
2023-04-23T07:55:56.536Z,98003.63
2023-04-23T07:56:58.436Z,98007.44
2023-04-23T07:58:00.297Z,98001.25
2023-04-23T07:59:02.620Z,98004.75
2023-04-23T08:00:09.332Z,98000.63
2023-04-23T08:01:11.253Z,98003.34
2023-04-23T08:02:13.149Z,98003.34
2023-04-23T08:03:15.204Z,98004.94
2023-04-23T08:04:17.299Z,98004.13
2023-04-23T08:05:19.494Z,98005.44
2023-04-23T08:06:22.184Z,98000.84
2023-04-23T08:07:24.051Z,98005.16
2023-04-23T08:08:26.090Z,98010.22
2023-04-23T08:09:27.932Z,98005.94
2023-04-23T08:10:29.840Z,98001.34
2023-04-23T08:11:35.033Z,98002.16
2023-04-23T08:12:36.971Z,98004.03
2023-04-23T08:13:38.862Z,98003.72
2023-04-23T08:14:40.731Z,98001.03
2023-04-23T08:15:42.562Z,97994.03
2023-04-23T08:16:44.614Z,97998.84
2023-04-23T08:17:46.587Z,97997.25
2023-04-23T08:19:03.639Z,97988.03
2023-04-23T08:20:07.865Z,97984.44
2023-04-23T08:21:09.771Z,97979.34
2023-04-23T08:22:13.288Z,97983.44
2023-04-23T08:23:15.151Z,97981.22
2023-04-23T08:24:17.052Z,97982.81
2023-04-23T08:25:19.713Z,97972.88
2023-04-23T08:26:21.584Z,97980.97
2023-04-23T08:27:23.453Z,97975.56
2023-04-23T08:28:25.264Z,97978.25
2023-04-23T08:29:27.141Z,97970.97
2023-04-23T08:30:29.034Z,97975.56
2023-04-23T08:31:31.270Z,97973.66
2023-04-23T08:32:33.144Z,97978.75
2023-04-23T08:33:35.084Z,97969.06
2023-04-23T08:34:37.191Z,97973.34
2023-04-23T08:35:39.044Z,97974.94
2023-04-23T08:36:40.824Z,97969.53
2023-04-23T08:37:42.695Z,97971.13
2023-04-23T08:38:44.498Z,97970.03
2023-04-23T08:39:46.408Z,97969.25
2023-04-23T08:40:54.295Z,97968.63
2023-04-23T08:41:57.820Z,97964.81
2023-04-23T08:43:10.736Z,97971.25
2023-04-23T08:44:19.883Z,97969.34
2023-04-23T08:45:23.339Z,97966.41
2023-04-23T08:46:31.655Z,97970.47
2023-04-23T08:47:35.242Z,97967.22
2023-04-23T08:48:39.858Z,97969.91
2023-04-23T08:49:44.630Z,97959.94
2023-04-23T08:50:47.348Z,97965.84
2023-04-23T08:52:03.059Z,97966.53
2023-04-23T08:53:06.959Z,97965.25
2023-04-23T08:54:15.017Z,97964.13
2023-04-23T08:55:18.859Z,97962.53
2023-04-23T08:56:22.942Z,97954.75
2023-04-23T08:57:26.198Z,97965.56
2023-04-23T08:58:28.885Z,97962.53
2023-04-23T08:59:34.548Z,97960.63
2023-04-23T09:00:36.905Z,97962.22
2023-04-23T09:01:39.065Z,97969.22
2023-04-23T09:02:43.433Z,97964.13
2023-04-23T09:03:47.238Z,97959.22
2023-04-23T09:04:51.861Z,97958.44
2023-04-23T09:05:54.967Z,97957.03
2023-04-23T09:06:57.119Z,97960.53
2023-04-23T09:07:59.735Z,97950.03
2023-04-23T09:09:01.697Z,97957.84
2023-04-23T09:10:07.040Z,97952.13
2023-04-23T09:11:09.550Z,97957.84
2023-04-23T09:12:11.428Z,97953.53
2023-04-23T09:13:14.435Z,97958.63
2023-04-23T09:14:17.234Z,97955.63
2023-04-23T09:15:19.266Z,97953.41
2023-04-23T09:16:21.346Z,97957.22
2023-04-23T09:17:28.202Z,97956.44
2023-04-23T09:18:30.473Z,97948.81
2023-04-23T09:19:32.793Z,97952.63
2023-04-23T09:20:34.677Z,97948.81
2023-04-23T09:21:39.796Z,97945.81
2023-04-23T09:22:47.532Z,97944.69
2023-04-23T09:23:52.556Z,97939.31
2023-04-23T09:24:54.782Z,97931.50
2023-04-23T09:25:57.317Z,97936.13
2023-04-23T09:26:59.234Z,97932.31
2023-04-23T09:28:01.730Z,97935.81
2023-04-23T09:29:03.564Z,97932.00
2023-04-23T09:30:11.724Z,97936.28
2023-04-23T09:31:13.700Z,97926.59
2023-04-23T09:32:15.535Z,97933.91
2023-04-23T09:33:17.667Z,97925.81
2023-04-23T09:34:22.538Z,97932.81
2023-04-23T09:35:28.463Z,97925.19
2023-04-23T09:36:32.342Z,97921.69
2023-04-23T09:37:35.493Z,97920.09
2023-04-23T09:38:39.566Z,97918.19
2023-04-23T09:39:41.825Z,97920.41
2023-04-23T09:40:43.961Z,97914.22
2023-04-23T09:41:46.524Z,97915.00
2023-04-23T09:42:52.658Z,97911.81
2023-04-23T09:43:56.325Z,97917.22
2023-04-23T09:45:04.341Z,97915.50
2023-04-23T09:46:06.444Z,97919.63
2023-04-23T09:47:14.960Z,97911.50
2023-04-23T09:48:16.911Z,97903.41
2023-04-23T09:49:18.888Z,97907.84
2023-04-23T09:50:40.230Z,97901.88
2023-04-23T09:51:44.869Z,97907.22
2023-04-23T09:52:56.206Z,97906.28
2023-04-23T09:53:58.968Z,97906.44
2023-04-23T09:55:05.446Z,97906.91
2023-04-23T09:56:08.084Z,97910.22
2023-04-23T09:57:12.242Z,97901.03
2023-04-23T09:58:16.101Z,97902.13
2023-04-23T09:59:35.599Z,97898.31
2023-04-23T10:00:43.014Z,97902.78
2023-04-23T10:01:46.257Z,97897.22
2023-04-23T10:02:50.923Z,97901.03
2023-04-23T10:03:54.121Z,97900.72
2023-04-23T10:05:03.689Z,97898.31
2023-04-23T10:06:25.496Z,97901.69
2023-04-23T10:07:41.404Z,97898.19
2023-04-23T10:08:43.768Z,97895.81
2023-04-23T10:09:45.921Z,97900.72
2023-04-23T10:10:57.498Z,97899.59
2023-04-23T10:12:20.774Z,97895.50
2023-04-23T10:13:32.485Z,97895.22
2023-04-23T10:14:35.180Z,97886.59
2023-04-23T10:15:37.611Z,97886.59
2023-04-23T10:16:48.736Z,97883.41
2023-04-23T10:17:52.744Z,97883.91
2023-04-23T10:18:56.878Z,97882.00
2023-04-23T10:20:01.715Z,97886.81
2023-04-23T10:21:05.469Z,97880.09
2023-04-23T10:22:19.416Z,97879.19
2023-04-23T10:23:24.538Z,97875.38
2023-04-23T10:24:30.422Z,97883.47
2023-04-23T10:25:33.968Z,97878.38
2023-04-23T10:26:42.108Z,97870.78
2023-04-23T10:27:53.092Z,97876.16
2023-04-23T10:29:00.535Z,97868.56
2023-04-23T10:30:06.153Z,97864.25
2023-04-23T10:31:09.968Z,97865.84
2023-04-23T10:32:13.016Z,97868.06
2023-04-23T10:33:28.999Z,97861.88
2023-04-23T10:34:33.046Z,97862.38
2023-04-23T10:35:35.312Z,97860.16
2023-04-23T10:36:39.181Z,97863.63
2023-04-23T10:37:42.074Z,97858.25
2023-04-23T10:38:56.903Z,97855.84
2023-04-23T10:40:16.527Z,97853.88
2023-04-23T10:41:24.999Z,97856.38
2023-04-23T10:42:27.714Z,97857.03
2023-04-23T10:43:29.801Z,97859.56
2023-04-23T10:45:44.861Z,97860.81
2023-04-23T10:46:57.374Z,97857.97
2023-04-23T10:47:59.489Z,97860.50
2023-04-23T10:49:16.773Z,97861.38
2023-04-23T10:50:34.858Z,97852.78
2023-04-23T10:52:43.688Z,97850.50
2023-04-23T10:53:46.052Z,97841.63
2023-04-23T10:55:00.041Z,97840.88
2023-04-23T10:56:07.648Z,97836.56
2023-04-23T10:57:11.170Z,97833.09
2023-04-23T10:58:13.202Z,97836.38
2023-04-23T10:59:20.517Z,97837.19
2023-04-23T11:00:22.511Z,97834.47
2023-04-23T11:01:30.284Z,97836.09
2023-04-23T11:02:44.991Z,97832.63
2023-04-23T11:03:48.045Z,97835.47
2023-04-23T11:04:58.023Z,97834.03
2023-04-23T11:06:05.867Z,97835.63
2023-04-23T11:07:12.571Z,97827.84
2023-04-23T11:08:19.184Z,97830.06
2023-04-23T11:09:44.523Z,97826.47
2023-04-23T11:10:58.267Z,97819.00
2023-04-23T11:12:02.424Z,97819.44
2023-04-23T11:13:25.966Z,97826.19
2023-04-23T11:15:09.624Z,97816.06
2023-04-23T11:16:23.316Z,97822.69
2023-04-23T11:17:31.330Z,97817.41
2023-04-23T11:19:03.957Z,97810.47
2023-04-23T11:20:20.288Z,97806.16
2023-04-23T11:21:22.463Z,97809.91
2023-04-23T11:22:24.606Z,97811.66
2023-04-23T11:23:33.058Z,97810.22
2023-04-23T11:24:44.588Z,97806.41
2023-04-23T11:25:47.442Z,97810.22
2023-04-23T11:26:53.581Z,97804.03
2023-04-23T11:28:00.403Z,97803.53
2023-04-23T11:29:04.267Z,97806.72
2023-04-23T11:30:16.352Z,97802.91
2023-04-23T11:31:18.140Z,97799.41
2023-04-23T11:32:21.833Z,97802.13
2023-04-23T11:33:23.809Z,97802.13
2023-04-23T11:34:26.234Z,97798.63
2023-04-23T11:35:29.477Z,97800.22
2023-04-23T11:36:32.944Z,97800.69
2023-04-23T11:37:41.069Z,97793.56
2023-04-23T11:38:42.896Z,97791.19
2023-04-23T11:39:47.596Z,97787.97
2023-04-23T11:40:53.404Z,97797.06
2023-04-23T11:41:55.560Z,97783.88
2023-04-23T11:42:57.751Z,97793.56
2023-04-23T11:43:59.644Z,97789.28
2023-04-23T11:45:01.474Z,97780.88
2023-04-23T11:46:03.381Z,97787.06
2023-04-23T11:47:19.083Z,97776.13
2023-04-23T11:48:21.054Z,97780.25
2023-04-23T11:49:22.993Z,97776.78
2023-04-23T11:50:26.073Z,97775.97
2023-04-23T11:51:28.634Z,97770.56
2023-04-23T11:52:30.529Z,97767.03
2023-04-23T11:53:32.352Z,97772.94
2023-04-23T11:54:34.810Z,97765.97
2023-04-23T11:55:38.061Z,97767.88
2023-04-23T11:56:40.999Z,97771.03
2023-04-23T11:57:45.636Z,97764.84
2023-04-23T11:58:47.492Z,97763.75
2023-04-23T11:59:49.458Z,97759.94
2023-04-23T12:00:59.423Z,97755.50
2023-04-23T12:02:01.431Z,97759.31
2023-04-23T12:03:06.371Z,97759.31
2023-04-23T12:04:17.060Z,97750.25
2023-04-23T12:05:28.224Z,97743.44
2023-04-23T12:06:30.106Z,97744.69
2023-04-23T12:07:32.994Z,97745.81
2023-04-23T12:08:40.379Z,97742.00
2023-04-23T12:09:45.634Z,97739.28
2023-04-23T12:10:50.378Z,97733.56
2023-04-23T12:11:52.526Z,97733.91
2023-04-23T12:12:54.328Z,97732.00
2023-04-23T12:13:58.173Z,97728.97
2023-04-23T12:15:07.531Z,97733.72
2023-04-23T12:16:11.119Z,97725.16
2023-04-23T12:17:13.220Z,97720.88
2023-04-23T12:18:15.657Z,97726.28
2023-04-23T12:19:21.918Z,97713.25
2023-04-23T12:20:23.803Z,97710.53
2023-04-23T12:21:26.385Z,97715.16
2023-04-23T12:22:28.383Z,97712.44
2023-04-23T12:23:30.280Z,97711.31
2023-04-23T12:24:51.589Z,97716.13
2023-04-23T12:25:54.966Z,97702.28
2023-04-23T12:27:02.590Z,97704.69
2023-04-23T12:28:04.972Z,97706.91